sensor_id;sensor_type;location;lat;lon;timestamp;P1;durP1;ratioP1;P2;durP2;ratioP2
15788;SDS011;59075;50.670;6.474;2022-09-28T05:01:19;422.27;;;369.70;;
15788;SDS011;59075;50.670;6.474;2022-09-28T05:03:48;429.30;;;381.97;;
15788;SDS011;59075;50.670;6.474;2022-09-28T05:06:15;427.67;;;380.43;;
15788;SDS011;59075;50.670;6.474;2022-09-28T05:08:42;430.17;;;383.07;;
15788;SDS011;59075;50.670;6.474;2022-09-28T05:11:11;430.93;;;383.73;;
15788;SDS011;59075;50.670;6.474;2022-09-28T05:13:39;439.30;;;392.03;;
15788;SDS011;59075;50.670;6.474;2022-09-28T05:16:07;427.03;;;379.47;;
15788;SDS011;59075;50.670;6.474;2022-09-28T05:18:36;420.47;;;368.70;;
15788;SDS011;59075;50.670;6.474;2022-09-28T05:21:03;433.87;;;386.60;;
15788;SDS011;59075;50.670;6.474;2022-09-28T05:23:34;431.27;;;384.13;;
15788;SDS011;59075;50.670;6.474;2022-09-28T05:26:00;428.33;;;380.63;;
15788;SDS011;59075;50.670;6.474;2022-09-28T05:28:28;422.93;;;374.20;;
15788;SDS011;59075;50.670;6.474;2022-09-28T05:30:57;436.47;;;389.27;;
15788;SDS011;59075;50.670;6.474;2022-09-28T05:33:24;432.97;;;385.80;;
15788;SDS011;59075;50.670;6.474;2022-09-28T05:35:52;427.97;;;380.13;;
15788;SDS011;59075;50.670;6.474;2022-09-28T05:38:19;424.63;;;377.40;;
15788;SDS011;59075;50.670;6.474;2022-09-28T05:40:46;424.73;;;377.07;;
15788;SDS011;59075;50.670;6.474;2022-09-28T05:43:13;426.57;;;379.57;;
15788;SDS011;59075;50.670;6.474;2022-09-28T05:45:39;422.60;;;368.83;;
15788;SDS011;59075;50.670;6.474;2022-09-28T05:48:06;424.33;;;377.00;;
15788;SDS011;59075;50.670;6.474;2022-09-28T05:50:33;434.50;;;387.27;;
15788;SDS011;59075;50.670;6.474;2022-09-28T05:53:02;437.60;;;390.23;;
15788;SDS011;59075;50.670;6.474;2022-09-28T05:55:30;425.60;;;377.70;;
15788;SDS011;59075;50.670;6.474;2022-09-28T05:57:57;424.67;;;376.97;;
15788;SDS011;59075;50.670;6.474;2022-09-28T06:00:25;432.07;;;384.80;;
15788;SDS011;59075;50.670;6.474;2022-09-28T06:02:55;429.30;;;382.03;;
15788;SDS011;59075;50.670;6.474;2022-09-28T06:05:23;432.33;;;384.93;;
15788;SDS011;59075;50.670;6.474;2022-09-28T06:07:50;432.77;;;385.53;;
15788;SDS011;59075;50.670;6.474;2022-09-28T06:10:18;434.47;;;387.13;;
15788;SDS011;59075;50.670;6.474;2022-09-28T06:12:44;424.17;;;375.83;;
15788;SDS011;59075;50.670;6.474;2022-09-28T06:15:12;427.87;;;380.70;;
15788;SDS011;59075;50.670;6.474;2022-09-28T06:17:40;430.87;;;383.80;;
15788;SDS011;59075;50.670;6.474;2022-09-28T06:20:08;434.43;;;387.10;;
15788;SDS011;59075;50.670;6.474;2022-09-28T06:22:35;431.93;;;384.73;;
15788;SDS011;59075;50.670;6.474;2022-09-28T06:25:02;421.33;;;368.37;;
15788;SDS011;59075;50.670;6.474;2022-09-28T06:27:32;431.20;;;384.00;;
15788;SDS011;59075;50.670;6.474;2022-09-28T06:29:59;437.73;;;390.37;;
15788;SDS011;59075;50.670;6.474;2022-09-28T06:32:26;431.00;;;383.67;;
15788;SDS011;59075;50.670;6.474;2022-09-28T06:34:53;437.90;;;390.50;;
15788;SDS011;59075;50.670;6.474;2022-09-28T06:37:20;443.07;;;395.43;;
15788;SDS011;59075;50.670;6.474;2022-09-28T06:39:46;453.30;;;403.80;;
15788;SDS011;59075;50.670;6.474;2022-09-28T06:42:13;444.63;;;397.07;;
15788;SDS011;59075;50.670;6.474;2022-09-28T06:44:42;431.77;;;384.57;;
15788;SDS011;59075;50.670;6.474;2022-09-28T06:47:11;430.23;;;382.70;;
15788;SDS011;59075;50.670;6.474;2022-09-28T06:49:37;439.70;;;392.23;;
15788;SDS011;59075;50.670;6.474;2022-09-28T06:52:04;435.23;;;387.77;;
15788;SDS011;59075;50.670;6.474;2022-09-28T06:54:31;434.20;;;386.97;;
15788;SDS011;59075;50.670;6.474;2022-09-28T06:56:57;429.87;;;382.80;;
15788;SDS011;59075;50.670;6.474;2022-09-28T06:59:24;437.13;;;389.77;;
15788;SDS011;59075;50.670;6.474;2022-09-28T07:01:52;437.27;;;389.83;;
15788;SDS011;59075;50.670;6.474;2022-09-28T07:04:19;435.60;;;388.30;;
15788;SDS011;59075;50.670;6.474;2022-09-28T07:06:46;436.97;;;389.70;;
15788;SDS011;59075;50.670;6.474;2022-09-28T07:09:12;454.47;;;405.37;;
15788;SDS011;59075;50.670;6.474;2022-09-28T07:11:39;437.30;;;389.90;;
15788;SDS011;59075;50.670;6.474;2022-09-28T07:14:08;432.50;;;385.33;;
15788;SDS011;59075;50.670;6.474;2022-09-28T07:16:35;426.57;;;379.43;;
15788;SDS011;59075;50.670;6.474;2022-09-28T07:19:04;436.53;;;388.83;;
15788;SDS011;59075;50.670;6.474;2022-09-28T07:21:31;454.63;;;407.03;;
15788;SDS011;59075;50.670;6.474;2022-09-28T07:23:58;444.60;;;397.07;;
15788;SDS011;59075;50.670;6.474;2022-09-28T07:26:25;441.33;;;393.97;;
15788;SDS011;59075;50.670;6.474;2022-09-28T07:28:51;428.40;;;381.27;;
15788;SDS011;59075;50.670;6.474;2022-09-28T07:31:19;438.93;;;391.53;;
15788;SDS011;59075;50.670;6.474;2022-09-28T07:33:49;437.47;;;389.97;;
15788;SDS011;59075;50.670;6.474;2022-09-28T07:36:19;428.37;;;381.20;;
15788;SDS011;59075;50.670;6.474;2022-09-28T07:38:49;448.87;;;401.20;;
15788;SDS011;59075;50.670;6.474;2022-09-28T07:41:16;449.07;;;401.40;;
15788;SDS011;59075;50.670;6.474;2022-09-28T07:43:50;431.10;;;383.87;;
15788;SDS011;59075;50.670;6.474;2022-09-28T07:46:18;449.77;;;402.20;;
15788;SDS011;59075;50.670;6.474;2022-09-28T07:48:46;444.07;;;396.67;;
15788;SDS011;59075;50.670;6.474;2022-09-28T07:51:15;441.30;;;393.90;;
15788;SDS011;59075;50.670;6.474;2022-09-28T07:53:45;438.60;;;391.20;;
15788;SDS011;59075;50.670;6.474;2022-09-28T07:56:12;438.20;;;390.80;;
15788;SDS011;59075;50.670;6.474;2022-09-28T07:58:41;447.70;;;400.13;;
15788;SDS011;59075;50.670;6.474;2022-09-28T08:01:09;443.43;;;396.13;;
15788;SDS011;59075;50.670;6.474;2022-09-28T08:03:38;443.00;;;395.63;;
15788;SDS011;59075;50.670;6.474;2022-09-28T08:06:09;444.80;;;397.13;;
15788;SDS011;59075;50.670;6.474;2022-09-28T08:08:37;441.07;;;393.83;;
15788;SDS011;59075;50.670;6.474;2022-09-28T08:11:09;464.20;;;416.13;;
15788;SDS011;59075;50.670;6.474;2022-09-28T08:13:36;455.50;;;407.77;;
15788;SDS011;59075;50.670;6.474;2022-09-28T08:16:03;450.73;;;402.97;;
15788;SDS011;59075;50.670;6.474;2022-09-28T08:18:32;450.97;;;403.27;;
15788;SDS011;59075;50.670;6.474;2022-09-28T08:20:59;447.40;;;399.70;;
15788;SDS011;59075;50.670;6.474;2022-09-28T08:23:44;451.00;;;403.43;;
15788;SDS011;59075;50.670;6.474;2022-09-28T08:26:12;445.47;;;397.87;;
15788;SDS011;59075;50.670;6.474;2022-09-28T08:28:39;447.17;;;399.33;;
15788;SDS011;59075;50.670;6.474;2022-09-28T08:31:06;454.00;;;406.17;;
15788;SDS011;59075;50.670;6.474;2022-09-28T08:33:34;452.63;;;405.07;;
15788;SDS011;59075;50.670;6.474;2022-09-28T08:36:01;460.00;;;412.30;;
15788;SDS011;59075;50.670;6.474;2022-09-28T08:38:29;457.27;;;409.40;;
15788;SDS011;59075;50.670;6.474;2022-09-28T08:41:05;447.90;;;400.30;;
15788;SDS011;59075;50.670;6.474;2022-09-28T08:43:44;462.33;;;414.40;;
15788;SDS011;59075;50.670;6.474;2022-09-28T08:46:28;446.93;;;399.23;;
15788;SDS011;59075;50.670;6.474;2022-09-28T08:48:59;459.80;;;411.97;;
15788;SDS011;59075;50.670;6.474;2022-09-28T08:51:32;454.03;;;406.27;;
15788;SDS011;59075;50.670;6.474;2022-09-28T08:54:03;457.87;;;410.07;;
15788;SDS011;59075;50.670;6.474;2022-09-28T08:56:34;466.87;;;418.80;;
15788;SDS011;59075;50.670;6.474;2022-09-28T08:59:10;473.67;;;424.53;;
15788;SDS011;59075;50.670;6.474;2022-09-28T09:01:41;438.23;;;391.03;;
15788;SDS011;59075;50.670;6.474;2022-09-28T09:04:12;451.17;;;403.63;;
15788;SDS011;59075;50.670;6.474;2022-09-28T09:06:53;451.73;;;404.10;;
15788;SDS011;59075;50.670;6.474;2022-09-28T09:09:46;446.23;;;398.53;;
15788;SDS011;59075;50.670;6.474;2022-09-28T09:12:25;445.97;;;398.43;;
15788;SDS011;59075;50.670;6.474;2022-09-28T09:15:04;449.37;;;401.83;;
15788;SDS011;59075;50.670;6.474;2022-09-28T09:17:54;433.27;;;385.80;;
15788;SDS011;59075;50.670;6.474;2022-09-28T09:20:33;455.40;;;407.33;;
15788;SDS011;59075;50.670;6.474;2022-09-28T09:23:07;449.60;;;402.07;;
15788;SDS011;59075;50.670;6.474;2022-09-28T09:25:39;447.20;;;399.40;;
15788;SDS011;59075;50.670;6.474;2022-09-28T09:28:16;464.80;;;416.67;;
15788;SDS011;59075;50.670;6.474;2022-09-28T09:31:08;451.93;;;404.30;;
15788;SDS011;59075;50.670;6.474;2022-09-28T09:33:57;460.70;;;412.90;;
15788;SDS011;59075;50.670;6.474;2022-09-28T09:36:39;454.30;;;406.40;;
15788;SDS011;59075;50.670;6.474;2022-09-28T09:39:14;471.53;;;422.23;;
15788;SDS011;59075;50.670;6.474;2022-09-28T09:41:53;451.83;;;404.07;;
15788;SDS011;59075;50.670;6.474;2022-09-28T09:44:39;447.83;;;400.43;;
15788;SDS011;59075;50.670;6.474;2022-09-28T09:47:27;438.17;;;390.77;;
15788;SDS011;59075;50.670;6.474;2022-09-28T09:49:58;449.57;;;401.93;;
15788;SDS011;59075;50.670;6.474;2022-09-28T09:52:36;445.83;;;398.27;;
15788;SDS011;59075;50.670;6.474;2022-09-28T09:55:12;458.43;;;410.60;;
15788;SDS011;59075;50.670;6.474;2022-09-28T09:57:41;457.90;;;410.20;;
15788;SDS011;59075;50.670;6.474;2022-09-28T10:00:13;453.13;;;405.53;;
15788;SDS011;59075;50.670;6.474;2022-09-28T10:02:43;459.97;;;412.20;;
15788;SDS011;59075;50.670;6.474;2022-09-28T10:05:17;452.33;;;404.70;;
15788;SDS011;59075;50.670;6.474;2022-09-28T10:07:46;452.87;;;405.27;;
15788;SDS011;59075;50.670;6.474;2022-09-28T10:10:18;448.20;;;400.73;;
15788;SDS011;59075;50.670;6.474;2022-09-28T10:12:47;466.77;;;418.77;;
15788;SDS011;59075;50.670;6.474;2022-09-28T10:15:17;465.73;;;417.73;;
15788;SDS011;59075;50.670;6.474;2022-09-28T10:17:49;467.20;;;419.03;;
15788;SDS011;59075;50.670;6.474;2022-09-28T10:20:17;468.80;;;420.67;;
15788;SDS011;59075;50.670;6.474;2022-09-28T10:22:44;467.30;;;419.37;;
15788;SDS011;59075;50.670;6.474;2022-09-28T10:25:11;460.53;;;412.47;;
15788;SDS011;59075;50.670;6.474;2022-09-28T10:27:39;462.90;;;414.87;;
15788;SDS011;59075;50.670;6.474;2022-09-28T10:30:12;473.77;;;425.57;;
15788;SDS011;59075;50.670;6.474;2022-09-28T10:32:42;467.63;;;419.50;;
15788;SDS011;59075;50.670;6.474;2022-09-28T10:35:12;457.77;;;409.83;;
15788;SDS011;59075;50.670;6.474;2022-09-28T10:37:50;464.33;;;416.47;;
15788;SDS011;59075;50.670;6.474;2022-09-28T10:40:26;470.70;;;422.53;;
15788;SDS011;59075;50.670;6.474;2022-09-28T10:43:04;472.20;;;424.03;;
15788;SDS011;59075;50.670;6.474;2022-09-28T10:45:40;481.93;;;433.53;;
15788;SDS011;59075;50.670;6.474;2022-09-28T10:48:12;471.33;;;423.20;;
15788;SDS011;59075;50.670;6.474;2022-09-28T10:50:44;491.90;;;443.30;;
15788;SDS011;59075;50.670;6.474;2022-09-28T10:53:24;484.47;;;435.97;;
15788;SDS011;59075;50.670;6.474;2022-09-28T10:55:55;477.43;;;429.23;;
15788;SDS011;59075;50.670;6.474;2022-09-28T10:58:25;466.43;;;418.50;;
15788;SDS011;59075;50.670;6.474;2022-09-28T11:00:57;486.83;;;438.27;;
15788;SDS011;59075;50.670;6.474;2022-09-28T11:03:27;484.67;;;435.97;;
15788;SDS011;59075;50.670;6.474;2022-09-28T11:05:57;475.57;;;427.47;;
15788;SDS011;59075;50.670;6.474;2022-09-28T11:08:27;492.00;;;443.43;;
15788;SDS011;59075;50.670;6.474;2022-09-28T11:11:00;492.77;;;444.33;;
15788;SDS011;59075;50.670;6.474;2022-09-28T11:13:36;467.67;;;419.53;;
15788;SDS011;59075;50.670;6.474;2022-09-28T11:16:08;471.87;;;423.77;;
15788;SDS011;59075;50.670;6.474;2022-09-28T11:18:46;478.57;;;430.27;;
15788;SDS011;59075;50.670;6.474;2022-09-28T11:21:14;482.37;;;433.93;;
15788;SDS011;59075;50.670;6.474;2022-09-28T11:23:53;488.37;;;439.90;;
15788;SDS011;59075;50.670;6.474;2022-09-28T11:26:21;489.87;;;441.30;;
15788;SDS011;59075;50.670;6.474;2022-09-28T11:28:49;484.93;;;436.50;;
15788;SDS011;59075;50.670;6.474;2022-09-28T11:31:16;480.77;;;432.37;;
15788;SDS011;59075;50.670;6.474;2022-09-28T11:33:51;472.33;;;424.40;;
15788;SDS011;59075;50.670;6.474;2022-09-28T11:36:33;486.13;;;437.57;;
15788;SDS011;59075;50.670;6.474;2022-09-28T11:39:16;502.80;;;453.27;;
15788;SDS011;59075;50.670;6.474;2022-09-28T11:41:56;473.40;;;425.20;;
15788;SDS011;59075;50.670;6.474;2022-09-28T11:44:41;471.93;;;423.93;;
15788;SDS011;59075;50.670;6.474;2022-09-28T11:47:15;472.40;;;424.40;;
15788;SDS011;59075;50.670;6.474;2022-09-28T11:50:03;483.90;;;435.47;;
15788;SDS011;59075;50.670;6.474;2022-09-28T11:52:38;480.47;;;431.87;;
15788;SDS011;59075;50.670;6.474;2022-09-28T11:55:12;487.23;;;438.67;;
15788;SDS011;59075;50.670;6.474;2022-09-28T11:57:44;463.77;;;415.77;;
15788;SDS011;59075;50.670;6.474;2022-09-28T12:00:15;493.27;;;444.73;;
15788;SDS011;59075;50.670;6.474;2022-09-28T12:02:48;480.63;;;432.30;;
15788;SDS011;59075;50.670;6.474;2022-09-28T12:05:19;464.73;;;416.73;;
15788;SDS011;59075;50.670;6.474;2022-09-28T12:07:51;480.07;;;431.70;;
15788;SDS011;59075;50.670;6.474;2022-09-28T12:10:25;478.30;;;430.13;;
15788;SDS011;59075;50.670;6.474;2022-09-28T12:13:02;478.60;;;430.30;;
15788;SDS011;59075;50.670;6.474;2022-09-28T12:15:37;479.27;;;430.93;;
15788;SDS011;59075;50.670;6.474;2022-09-28T12:18:11;476.33;;;428.07;;
15788;SDS011;59075;50.670;6.474;2022-09-28T12:20:45;476.10;;;427.67;;
15788;SDS011;59075;50.670;6.474;2022-09-28T12:23:18;473.33;;;425.07;;
15788;SDS011;59075;50.670;6.474;2022-09-28T12:25:52;478.77;;;430.50;;
15788;SDS011;59075;50.670;6.474;2022-09-28T12:28:25;466.17;;;418.10;;
15788;SDS011;59075;50.670;6.474;2022-09-28T12:30:59;481.77;;;433.57;;
15788;SDS011;59075;50.670;6.474;2022-09-28T12:33:37;473.83;;;425.73;;
15788;SDS011;59075;50.670;6.474;2022-09-28T12:36:05;481.93;;;433.53;;
15788;SDS011;59075;50.670;6.474;2022-09-28T12:38:44;472.97;;;424.77;;
15788;SDS011;59075;50.670;6.474;2022-09-28T12:41:22;471.60;;;423.40;;
15788;SDS011;59075;50.670;6.474;2022-09-28T12:47:00;474.03;;;425.73;;
15788;SDS011;59075;50.670;6.474;2022-09-28T12:49:44;480.50;;;432.13;;
15788;SDS011;59075;50.670;6.474;2022-09-28T12:52:32;475.57;;;427.20;;
15788;SDS011;59075;50.670;6.474;2022-09-28T12:55:15;472.53;;;424.27;;
15788;SDS011;59075;50.670;6.474;2022-09-28T12:57:57;477.80;;;429.50;;
15788;SDS011;59075;50.670;6.474;2022-09-28T13:00:30;472.63;;;424.13;;
15788;SDS011;59075;50.670;6.474;2022-09-28T13:03:08;480.83;;;432.43;;
15788;SDS011;59075;50.670;6.474;2022-09-28T13:08:44;473.90;;;425.47;;
15788;SDS011;59075;50.670;6.474;2022-09-28T13:11:24;466.97;;;418.93;;
15788;SDS011;59075;50.670;6.474;2022-09-28T13:13:59;469.07;;;420.67;;
15788;SDS011;59075;50.670;6.474;2022-09-28T13:16:31;479.03;;;430.57;;
15788;SDS011;59075;50.670;6.474;2022-09-28T13:19:06;484.00;;;434.60;;
15788;SDS011;59075;50.670;6.474;2022-09-28T13:21:38;489.97;;;441.30;;
15788;SDS011;59075;50.670;6.474;2022-09-28T13:24:12;470.47;;;422.30;;
15788;SDS011;59075;50.670;6.474;2022-09-28T13:26:46;475.23;;;427.07;;
15788;SDS011;59075;50.670;6.474;2022-09-28T13:29:15;500.17;;;450.20;;
15788;SDS011;59075;50.670;6.474;2022-09-28T13:31:44;482.77;;;434.07;;
15788;SDS011;59075;50.670;6.474;2022-09-28T13:34:15;482.40;;;434.20;;
15788;SDS011;59075;50.670;6.474;2022-09-28T13:36:51;476.07;;;427.57;;
15788;SDS011;59075;50.670;6.474;2022-09-28T13:39:36;472.37;;;424.17;;
15788;SDS011;59075;50.670;6.474;2022-09-28T13:42:20;485.73;;;437.07;;
15788;SDS011;59075;50.670;6.474;2022-09-28T13:45:05;468.67;;;420.50;;
15788;SDS011;59075;50.670;6.474;2022-09-28T13:47:57;480.47;;;432.10;;
15788;SDS011;59075;50.670;6.474;2022-09-28T13:50:36;461.87;;;413.93;;
15788;SDS011;59075;50.670;6.474;2022-09-28T13:53:23;493.40;;;444.97;;
15788;SDS011;59075;50.670;6.474;2022-09-28T13:55:59;475.47;;;427.17;;
15788;SDS011;59075;50.670;6.474;2022-09-28T13:58:32;480.23;;;432.13;;
15788;SDS011;59075;50.670;6.474;2022-09-28T14:01:02;471.17;;;423.07;;
15788;SDS011;59075;50.670;6.474;2022-09-28T14:03:43;478.17;;;429.73;;
15788;SDS011;59075;50.670;6.474;2022-09-28T14:06:22;483.90;;;435.50;;
15788;SDS011;59075;50.670;6.474;2022-09-28T14:09:08;501.20;;;452.00;;
15788;SDS011;59075;50.670;6.474;2022-09-28T14:14:55;479.27;;;430.93;;
15788;SDS011;59075;50.670;6.474;2022-09-28T14:20:21;478.53;;;430.17;;
15788;SDS011;59075;50.670;6.474;2022-09-28T14:22:53;472.77;;;424.50;;
15788;SDS011;59075;50.670;6.474;2022-09-28T14:25:42;483.53;;;435.00;;
15788;SDS011;59075;50.670;6.474;2022-09-28T14:31:07;483.40;;;434.70;;
15788;SDS011;59075;50.670;6.474;2022-09-28T14:33:39;483.67;;;435.10;;
15788;SDS011;59075;50.670;6.474;2022-09-28T14:36:07;487.43;;;439.10;;
15788;SDS011;59075;50.670;6.474;2022-09-28T14:39:18;512.33;;;462.07;;
15788;SDS011;59075;50.670;6.474;2022-09-28T14:42:08;480.47;;;432.17;;
15788;SDS011;59075;50.670;6.474;2022-09-28T14:47:41;471.67;;;422.83;;
15788;SDS011;59075;50.670;6.474;2022-09-28T14:50:17;481.40;;;432.90;;
15788;SDS011;59075;50.670;6.474;2022-09-28T14:52:49;481.83;;;433.37;;
15788;SDS011;59075;50.670;6.474;2022-09-28T14:55:18;483.60;;;435.13;;
15788;SDS011;59075;50.670;6.474;2022-09-28T14:57:50;474.33;;;426.10;;
15788;SDS011;59075;50.670;6.474;2022-09-28T15:00:21;487.80;;;438.87;;
15788;SDS011;59075;50.670;6.474;2022-09-28T15:02:51;479.20;;;430.77;;
15788;SDS011;59075;50.670;6.474;2022-09-28T15:05:22;480.90;;;432.60;;
15788;SDS011;59075;50.670;6.474;2022-09-28T15:07:50;471.57;;;423.53;;
15788;SDS011;59075;50.670;6.474;2022-09-28T15:10:22;492.63;;;443.83;;
15788;SDS011;59075;50.670;6.474;2022-09-28T15:12:56;484.03;;;435.70;;
15788;SDS011;59075;50.670;6.474;2022-09-28T15:15:32;478.27;;;430.00;;
15788;SDS011;59075;50.670;6.474;2022-09-28T15:20:58;467.83;;;419.67;;
15788;SDS011;59075;50.670;6.474;2022-09-28T15:23:26;481.83;;;433.33;;
15788;SDS011;59075;50.670;6.474;2022-09-28T15:25:54;484.00;;;435.63;;
15788;SDS011;59075;50.670;6.474;2022-09-28T15:28:21;484.63;;;436.30;;
15788;SDS011;59075;50.670;6.474;2022-09-28T15:30:49;480.97;;;432.37;;
15788;SDS011;59075;50.670;6.474;2022-09-28T15:38:29;477.37;;;428.80;;
15788;SDS011;59075;50.670;6.474;2022-09-28T15:40:58;481.57;;;433.40;;
15788;SDS011;59075;50.670;6.474;2022-09-28T15:43:28;481.27;;;432.97;;
15788;SDS011;59075;50.670;6.474;2022-09-28T15:45:58;487.23;;;438.60;;
15788;SDS011;59075;50.670;6.474;2022-09-28T15:48:30;487.73;;;438.83;;
15788;SDS011;59075;50.670;6.474;2022-09-28T15:51:05;465.60;;;417.63;;
15788;SDS011;59075;50.670;6.474;2022-09-28T15:53:37;494.20;;;445.30;;
15788;SDS011;59075;50.670;6.474;2022-09-28T15:56:07;487.00;;;437.50;;
15788;SDS011;59075;50.670;6.474;2022-09-28T15:58:35;469.93;;;421.83;;
15788;SDS011;59075;50.670;6.474;2022-09-28T16:01:17;475.57;;;426.87;;
15788;SDS011;59075;50.670;6.474;2022-09-28T16:03:50;477.97;;;429.47;;
15788;SDS011;59075;50.670;6.474;2022-09-28T16:06:18;499.10;;;449.50;;
15788;SDS011;59075;50.670;6.474;2022-09-28T16:08:46;469.80;;;421.73;;
15788;SDS011;59075;50.670;6.474;2022-09-28T16:11:15;489.87;;;441.17;;
15788;SDS011;59075;50.670;6.474;2022-09-28T16:13:49;470.40;;;422.13;;
15788;SDS011;59075;50.670;6.474;2022-09-28T16:16:21;489.30;;;439.70;;
15788;SDS011;59075;50.670;6.474;2022-09-28T16:18:53;466.80;;;418.67;;
15788;SDS011;59075;50.670;6.474;2022-09-28T16:21:36;487.83;;;439.07;;
15788;SDS011;59075;50.670;6.474;2022-09-28T16:24:05;472.07;;;423.97;;
15788;SDS011;59075;50.670;6.474;2022-09-28T16:26:33;480.33;;;432.00;;
15788;SDS011;59075;50.670;6.474;2022-09-28T16:29:06;466.40;;;418.33;;
15788;SDS011;59075;50.670;6.474;2022-09-28T16:31:34;477.53;;;429.27;;
15788;SDS011;59075;50.670;6.474;2022-09-28T16:34:14;475.87;;;427.67;;
15788;SDS011;59075;50.670;6.474;2022-09-28T16:36:44;473.30;;;425.03;;
15788;SDS011;59075;50.670;6.474;2022-09-28T16:39:13;471.33;;;423.23;;
15788;SDS011;59075;50.670;6.474;2022-09-28T16:41:43;467.30;;;419.07;;
15788;SDS011;59075;50.670;6.474;2022-09-28T16:44:13;472.43;;;424.23;;
15788;SDS011;59075;50.670;6.474;2022-09-28T16:46:41;468.83;;;420.43;;
15788;SDS011;59075;50.670;6.474;2022-09-28T16:49:10;482.93;;;434.47;;
15788;SDS011;59075;50.670;6.474;2022-09-28T16:51:42;481.93;;;433.53;;
15788;SDS011;59075;50.670;6.474;2022-09-28T16:54:10;467.33;;;419.27;;
15788;SDS011;59075;50.670;6.474;2022-09-28T16:56:59;477.17;;;428.80;;
15788;SDS011;59075;50.670;6.474;2022-09-28T16:59:32;454.53;;;406.67;;
15788;SDS011;59075;50.670;6.474;2022-09-28T17:02:04;468.37;;;420.17;;
15788;SDS011;59075;50.670;6.474;2022-09-28T17:04:40;467.53;;;419.33;;
15788;SDS011;59075;50.670;6.474;2022-09-28T17:07:07;480.80;;;432.30;;
15788;SDS011;59075;50.670;6.474;2022-09-28T17:09:37;461.07;;;413.20;;
15788;SDS011;59075;50.670;6.474;2022-09-28T17:12:05;458.97;;;411.00;;
15788;SDS011;59075;50.670;6.474;2022-09-28T17:14:37;461.93;;;414.00;;
15788;SDS011;59075;50.670;6.474;2022-09-28T17:17:04;455.40;;;407.67;;
15788;SDS011;59075;50.670;6.474;2022-09-28T17:19:31;475.70;;;427.53;;
15788;SDS011;59075;50.670;6.474;2022-09-28T17:21:57;493.50;;;444.57;;
15788;SDS011;59075;50.670;6.474;2022-09-28T17:24:24;475.37;;;427.10;;
15788;SDS011;59075;50.670;6.474;2022-09-28T17:26:52;459.57;;;411.57;;
15788;SDS011;59075;50.670;6.474;2022-09-28T17:29:19;482.23;;;433.67;;
15788;SDS011;59075;50.670;6.474;2022-09-28T17:31:46;465.67;;;417.73;;
15788;SDS011;59075;50.670;6.474;2022-09-28T17:34:13;472.50;;;424.30;;
15788;SDS011;59075;50.670;6.474;2022-09-28T17:36:41;468.63;;;420.17;;
15788;SDS011;59075;50.670;6.474;2022-09-28T17:39:09;466.57;;;418.47;;
15788;SDS011;59075;50.670;6.474;2022-09-28T17:41:37;460.83;;;413.00;;
15788;SDS011;59075;50.670;6.474;2022-09-28T17:44:06;458.17;;;410.30;;
15788;SDS011;59075;50.670;6.474;2022-09-28T17:46:33;457.30;;;409.43;;
15788;SDS011;59075;50.670;6.474;2022-09-28T17:49:03;469.83;;;421.47;;
15788;SDS011;59075;50.670;6.474;2022-09-28T17:51:31;471.20;;;422.97;;
15788;SDS011;59075;50.670;6.474;2022-09-28T17:54:01;474.77;;;426.60;;
15788;SDS011;59075;50.670;6.474;2022-09-28T17:56:29;470.93;;;422.80;;
15788;SDS011;59075;50.670;6.474;2022-09-28T17:58:57;463.53;;;415.50;;
15788;SDS011;59075;50.670;6.474;2022-09-28T18:01:26;482.83;;;434.43;;
15788;SDS011;59075;50.670;6.474;2022-09-28T18:03:58;467.17;;;419.10;;
15788;SDS011;59075;50.670;6.474;2022-09-28T18:06:25;468.63;;;420.40;;
15788;SDS011;59075;50.670;6.474;2022-09-28T18:08:53;479.50;;;431.03;;
15788;SDS011;59075;50.670;6.474;2022-09-28T18:11:20;470.33;;;421.90;;
15788;SDS011;59075;50.670;6.474;2022-09-28T18:13:46;466.07;;;417.97;;
15788;SDS011;59075;50.670;6.474;2022-09-28T18:16:13;478.67;;;428.87;;
15788;SDS011;59075;50.670;6.474;2022-09-28T18:18:42;472.17;;;423.83;;
15788;SDS011;59075;50.670;6.474;2022-09-28T18:21:09;461.27;;;413.13;;
15788;SDS011;59075;50.670;6.474;2022-09-28T18:23:36;474.30;;;425.93;;
15788;SDS011;59075;50.670;6.474;2022-09-28T18:26:03;469.83;;;421.43;;
15788;SDS011;59075;50.670;6.474;2022-09-28T18:28:35;459.60;;;411.70;;
15788;SDS011;59075;50.670;6.474;2022-09-28T18:31:05;460.97;;;412.73;;
15788;SDS011;59075;50.670;6.474;2022-09-28T18:33:32;473.43;;;425.30;;
15788;SDS011;59075;50.670;6.474;2022-09-28T18:36:00;463.47;;;415.43;;
15788;SDS011;59075;50.670;6.474;2022-09-28T18:38:28;470.00;;;421.83;;
15788;SDS011;59075;50.670;6.474;2022-09-28T18:40:54;474.20;;;426.00;;
15788;SDS011;59075;50.670;6.474;2022-09-28T18:43:21;467.77;;;419.53;;
15788;SDS011;59075;50.670;6.474;2022-09-28T18:45:48;474.90;;;426.63;;
15788;SDS011;59075;50.670;6.474;2022-09-28T18:48:15;464.67;;;416.23;;
15788;SDS011;59075;50.670;6.474;2022-09-28T18:50:42;463.67;;;415.53;;
15788;SDS011;59075;50.670;6.474;2022-09-28T18:53:10;470.57;;;422.37;;
15788;SDS011;59075;50.670;6.474;2022-09-28T18:55:38;470.90;;;422.70;;
15788;SDS011;59075;50.670;6.474;2022-09-28T18:58:05;466.60;;;418.30;;
15788;SDS011;59075;50.670;6.474;2022-09-28T19:00:32;462.87;;;414.97;;
15788;SDS011;59075;50.670;6.474;2022-09-28T19:02:59;467.57;;;419.47;;
15788;SDS011;59075;50.670;6.474;2022-09-28T19:05:26;467.27;;;418.87;;
15788;SDS011;59075;50.670;6.474;2022-09-28T19:07:53;467.37;;;419.30;;
15788;SDS011;59075;50.670;6.474;2022-09-28T19:10:21;460.13;;;412.33;;
15788;SDS011;59075;50.670;6.474;2022-09-28T19:12:48;475.93;;;427.57;;
15788;SDS011;59075;50.670;6.474;2022-09-28T19:15:16;480.97;;;432.70;;
15788;SDS011;59075;50.670;6.474;2022-09-28T19:17:43;464.40;;;416.27;;
15788;SDS011;59075;50.670;6.474;2022-09-28T19:20:11;466.30;;;418.17;;
15788;SDS011;59075;50.670;6.474;2022-09-28T19:22:38;479.73;;;431.27;;
15788;SDS011;59075;50.670;6.474;2022-09-28T19:25:05;468.67;;;420.63;;
15788;SDS011;59075;50.670;6.474;2022-09-28T19:27:34;448.50;;;400.93;;
15788;SDS011;59075;50.670;6.474;2022-09-28T19:30:03;460.63;;;412.57;;
15788;SDS011;59075;50.670;6.474;2022-09-28T19:32:31;462.87;;;414.80;;
15788;SDS011;59075;50.670;6.474;2022-09-28T19:34:57;474.50;;;426.07;;
15788;SDS011;59075;50.670;6.474;2022-09-28T19:37:24;468.23;;;420.07;;
15788;SDS011;59075;50.670;6.474;2022-09-28T19:39:51;453.00;;;405.13;;
15788;SDS011;59075;50.670;6.474;2022-09-28T19:42:18;457.27;;;409.50;;
15788;SDS011;59075;50.670;6.474;2022-09-28T19:44:46;456.73;;;408.83;;
15788;SDS011;59075;50.670;6.474;2022-09-28T19:47:13;456.17;;;408.37;;